sensor_id;sensor_type;location;lat;lon;timestamp;temperature;humidity
40374;DHT22;26079;45.958;12.492;2023-02-11T00:00:05;-2.40;92.90
40374;DHT22;26079;45.958;12.492;2023-02-11T00:02:32;-2.50;92.60
40374;DHT22;26079;45.958;12.492;2023-02-11T00:04:58;-2.60;93.80
40374;DHT22;26079;45.958;12.492;2023-02-11T00:07:28;-2.60;94.50
40374;DHT22;26079;45.958;12.492;2023-02-11T00:09:53;-2.60;93.50
40374;DHT22;26079;45.958;12.492;2023-02-11T00:12:19;-2.70;93.30
40374;DHT22;26079;45.958;12.492;2023-02-11T00:14:45;-2.80;93.50
40374;DHT22;26079;45.958;12.492;2023-02-11T00:17:11;-2.80;94.30
40374;DHT22;26079;45.958;12.492;2023-02-11T00:19:36;-2.70;94.50
40374;DHT22;26079;45.958;12.492;2023-02-11T00:22:02;-2.70;94.70
40374;DHT22;26079;45.958;12.492;2023-02-11T00:24:28;-2.70;95.00
40374;DHT22;26079;45.958;12.492;2023-02-11T00:26:54;-2.60;95.60
40374;DHT22;26079;45.958;12.492;2023-02-11T00:29:20;-2.60;95.40
40374;DHT22;26079;45.958;12.492;2023-02-11T00:31:46;-2.60;95.20
40374;DHT22;26079;45.958;12.492;2023-02-11T00:34:12;-2.60;95.60
40374;DHT22;26079;45.958;12.492;2023-02-11T00:36:38;-2.60;95.10
40374;DHT22;26079;45.958;12.492;2023-02-11T00:39:03;-2.60;95.40
40374;DHT22;26079;45.958;12.492;2023-02-11T00:41:29;-2.60;94.60
40374;DHT22;26079;45.958;12.492;2023-02-11T00:43:55;-2.70;94.30
40374;DHT22;26079;45.958;12.492;2023-02-11T00:46:21;-2.70;94.40
40374;DHT22;26079;45.958;12.492;2023-02-11T00:48:48;-2.80;94.00
40374;DHT22;26079;45.958;12.492;2023-02-11T00:51:14;-2.80;94.60
40374;DHT22;26079;45.958;12.492;2023-02-11T00:53:39;-2.80;95.60
40374;DHT22;26079;45.958;12.492;2023-02-11T00:56:06;-2.80;94.70
40374;DHT22;26079;45.958;12.492;2023-02-11T00:58:31;-2.80;94.80
40374;DHT22;26079;45.958;12.492;2023-02-11T01:00:57;-2.90;94.40
40374;DHT22;26079;45.958;12.492;2023-02-11T01:03:23;-2.90;95.20
40374;DHT22;26079;45.958;12.492;2023-02-11T01:05:49;-2.90;95.20
40374;DHT22;26079;45.958;12.492;2023-02-11T01:08:15;-2.80;95.40
40374;DHT22;26079;45.958;12.492;2023-02-11T01:10:40;-2.80;96.10
40374;DHT22;26079;45.958;12.492;2023-02-11T01:13:08;-2.80;95.00
40374;DHT22;26079;45.958;12.492;2023-02-11T01:15:34;-2.80;95.30
40374;DHT22;26079;45.958;12.492;2023-02-11T01:18:00;-2.70;95.70
40374;DHT22;26079;45.958;12.492;2023-02-11T01:20:27;-2.70;95.20
40374;DHT22;26079;45.958;12.492;2023-02-11T01:22:54;-2.80;94.60
40374;DHT22;26079;45.958;12.492;2023-02-11T01:25:20;-2.90;95.00
40374;DHT22;26079;45.958;12.492;2023-02-11T01:27:46;-2.90;95.80
40374;DHT22;26079;45.958;12.492;2023-02-11T01:30:12;-2.80;96.40
40374;DHT22;26079;45.958;12.492;2023-02-11T01:32:38;-2.90;95.10
40374;DHT22;26079;45.958;12.492;2023-02-11T01:35:05;-3.00;95.60
40374;DHT22;26079;45.958;12.492;2023-02-11T01:37:34;-3.00;96.40
40374;DHT22;26079;45.958;12.492;2023-02-11T01:40:01;-3.10;95.70
40374;DHT22;26079;45.958;12.492;2023-02-11T01:42:27;-3.30;96.10
40374;DHT22;26079;45.958;12.492;2023-02-11T01:44:54;-3.30;97.30
40374;DHT22;26079;45.958;12.492;2023-02-11T01:47:20;-3.30;97.20
40374;DHT22;26079;45.958;12.492;2023-02-11T01:49:49;-3.40;97.80
40374;DHT22;26079;45.958;12.492;2023-02-11T01:52:31;-3.40;97.50
40374;DHT22;26079;45.958;12.492;2023-02-11T01:55:10;-3.40;97.40
40374;DHT22;26079;45.958;12.492;2023-02-11T01:57:59;-3.40;97.70
40374;DHT22;26079;45.958;12.492;2023-02-11T02:00:36;-3.30;98.00
40374;DHT22;26079;45.958;12.492;2023-02-11T02:05:55;-3.20;98.60
40374;DHT22;26079;45.958;12.492;2023-02-11T02:11:26;-3.20;96.50
40374;DHT22;26079;45.958;12.492;2023-02-11T02:13:51;-3.20;97.20
40374;DHT22;26079;45.958;12.492;2023-02-11T02:16:18;-3.20;97.40
40374;DHT22;26079;45.958;12.492;2023-02-11T02:30:13;-3.10;98.40
40374;DHT22;26079;45.958;12.492;2023-02-11T02:38:13;-3.10;98.70
40374;DHT22;26079;45.958;12.492;2023-02-11T02:43:10;-3.00;98.10
40374;DHT22;26079;45.958;12.492;2023-02-11T02:45:37;-3.00;97.70
40374;DHT22;26079;45.958;12.492;2023-02-11T02:48:03;-3.00;97.50
40374;DHT22;26079;45.958;12.492;2023-02-11T02:50:33;-3.00;97.20
40374;DHT22;26079;45.958;12.492;2023-02-11T02:53:29;-3.10;96.30
40374;DHT22;26079;45.958;12.492;2023-02-11T02:56:08;-3.30;96.90
40374;DHT22;26079;45.958;12.492;2023-02-11T03:04:36;-3.50;98.70
40374;DHT22;26079;45.958;12.492;2023-02-11T03:10:09;-3.80;98.20
40374;DHT22;26079;45.958;12.492;2023-02-11T03:12:36;-3.70;99.40
40374;DHT22;26079;45.958;12.492;2023-02-11T03:15:04;-3.60;99.50
40374;DHT22;26079;45.958;12.492;2023-02-11T03:17:33;-3.70;98.30
40374;DHT22;26079;45.958;12.492;2023-02-11T03:20:02;-3.80;98.40
40374;DHT22;26079;45.958;12.492;2023-02-11T03:22:38;-3.90;99.00
40374;DHT22;26079;45.958;12.492;2023-02-11T03:25:05;-3.90;99.70
40374;DHT22;26079;45.958;12.492;2023-02-11T03:27:42;-3.80;99.80
40374;DHT22;26079;45.958;12.492;2023-02-11T03:30:25;-3.80;98.90
40374;DHT22;26079;45.958;12.492;2023-02-11T03:32:56;-3.80;98.50
40374;DHT22;26079;45.958;12.492;2023-02-11T03:35:28;-3.80;98.80
40374;DHT22;26079;45.958;12.492;2023-02-11T03:38:04;-3.70;99.00
40374;DHT22;26079;45.958;12.492;2023-02-11T03:40:35;-3.70;99.10
40374;DHT22;26079;45.958;12.492;2023-02-11T03:43:20;-3.70;99.10
40374;DHT22;26079;45.958;12.492;2023-02-11T03:45:49;-3.70;99.10
40374;DHT22;26079;45.958;12.492;2023-02-11T03:48:30;-3.70;99.20
40374;DHT22;26079;45.958;12.492;2023-02-11T03:50:58;-3.60;99.20
40374;DHT22;26079;45.958;12.492;2023-02-11T03:53:25;-3.60;99.20
40374;DHT22;26079;45.958;12.492;2023-02-11T03:55:53;-3.60;99.50
40374;DHT22;26079;45.958;12.492;2023-02-11T03:58:21;-3.60;99.70
40374;DHT22;26079;45.958;12.492;2023-02-11T04:00:47;-3.50;99.60
40374;DHT22;26079;45.958;12.492;2023-02-11T04:03:13;-3.50;99.20
40374;DHT22;26079;45.958;12.492;2023-02-11T04:05:39;-3.40;99.00
40374;DHT22;26079;45.958;12.492;2023-02-11T04:08:05;-3.40;98.50
40374;DHT22;26079;45.958;12.492;2023-02-11T04:10:31;-3.40;98.10
40374;DHT22;26079;45.958;12.492;2023-02-11T04:12:57;-3.50;97.60
40374;DHT22;26079;45.958;12.492;2023-02-11T04:15:23;-3.60;97.20
40374;DHT22;26079;45.958;12.492;2023-02-11T04:17:49;-3.70;97.60
40374;DHT22;26079;45.958;12.492;2023-02-11T04:20:14;-3.90;98.10
40374;DHT22;26079;45.958;12.492;2023-02-11T04:22:40;-4.00;98.80
40374;DHT22;26079;45.958;12.492;2023-02-11T04:25:06;-4.00;99.70
40374;DHT22;26079;45.958;12.492;2023-02-11T04:27:32;-4.00;99.30
40374;DHT22;26079;45.958;12.492;2023-02-11T04:29:58;-4.00;99.30
40374;DHT22;26079;45.958;12.492;2023-02-11T04:32:23;-3.90;99.40
40374;DHT22;26079;45.958;12.492;2023-02-11T04:34:49;-3.90;99.20
40374;DHT22;26079;45.958;12.492;2023-02-11T04:37:15;-3.90;99.20
40374;DHT22;26079;45.958;12.492;2023-02-11T04:39:41;-3.90;99.70
40374;DHT22;26079;45.958;12.492;2023-02-11T04:42:06;-4.00;99.70
40374;DHT22;26079;45.958;12.492;2023-02-11T04:44:32;-3.90;99.90
40374;DHT22;26079;45.958;12.492;2023-02-11T04:46:58;-3.80;99.40
40374;DHT22;26079;45.958;12.492;2023-02-11T04:49:24;-3.80;98.70
40374;DHT22;26079;45.958;12.492;2023-02-11T04:51:50;-3.80;98.70
40374;DHT22;26079;45.958;12.492;2023-02-11T04:54:16;-3.80;97.90
40374;DHT22;26079;45.958;12.492;2023-02-11T04:56:42;-3.90;97.70
40374;DHT22;26079;45.958;12.492;2023-02-11T04:59:08;-3.90;98.60
40374;DHT22;26079;45.958;12.492;2023-02-11T05:01:34;-3.90;99.00
40374;DHT22;26079;45.958;12.492;2023-02-11T05:04:01;-3.80;99.50
40374;DHT22;26079;45.958;12.492;2023-02-11T05:06:26;-3.80;99.10
40374;DHT22;26079;45.958;12.492;2023-02-11T05:08:52;-3.80;99.00
40374;DHT22;26079;45.958;12.492;2023-02-11T05:11:20;-3.80;99.40
40374;DHT22;26079;45.958;12.492;2023-02-11T05:13:47;-3.80;98.80
40374;DHT22;26079;45.958;12.492;2023-02-11T05:16:13;-3.80;99.70
40374;DHT22;26079;45.958;12.492;2023-02-11T05:18:41;-3.80;99.90
40374;DHT22;26079;45.958;12.492;2023-02-11T05:21:15;-3.80;99.90
40374;DHT22;26079;45.958;12.492;2023-02-11T05:23:42;-3.80;99.80
40374;DHT22;26079;45.958;12.492;2023-02-11T05:26:08;-3.70;99.90
40374;DHT22;26079;45.958;12.492;2023-02-11T05:28:34;-3.70;99.90
40374;DHT22;26079;45.958;12.492;2023-02-11T05:31:01;-3.70;98.60
40374;DHT22;26079;45.958;12.492;2023-02-11T05:33:27;-3.80;98.50
40374;DHT22;26079;45.958;12.492;2023-02-11T05:36:07;-3.80;98.80
40374;DHT22;26079;45.958;12.492;2023-02-11T05:38:33;-3.80;98.90
40374;DHT22;26079;45.958;12.492;2023-02-11T05:41:00;-3.80;98.30
40374;DHT22;26079;45.958;12.492;2023-02-11T05:43:25;-3.90;98.30
40374;DHT22;26079;45.958;12.492;2023-02-11T05:45:51;-3.90;98.90
40374;DHT22;26079;45.958;12.492;2023-02-11T05:48:17;-3.90;99.50
40374;DHT22;26079;45.958;12.492;2023-02-11T05:50:43;-4.00;99.70
40374;DHT22;26079;45.958;12.492;2023-02-11T05:53:09;-4.00;99.90
40374;DHT22;26079;45.958;12.492;2023-02-11T05:55:35;-4.00;99.90
40374;DHT22;26079;45.958;12.492;2023-02-11T05:58:01;-4.00;99.80
40374;DHT22;26079;45.958;12.492;2023-02-11T06:00:27;-3.90;99.60
40374;DHT22;26079;45.958;12.492;2023-02-11T06:02:53;-4.00;98.70
40374;DHT22;26079;45.958;12.492;2023-02-11T06:05:18;-4.00;99.00
40374;DHT22;26079;45.958;12.492;2023-02-11T06:07:44;-4.00;99.10
40374;DHT22;26079;45.958;12.492;2023-02-11T06:10:10;-4.00;99.60
40374;DHT22;26079;45.958;12.492;2023-02-11T06:12:36;-4.10;98.30
40374;DHT22;26079;45.958;12.492;2023-02-11T06:15:03;-4.20;98.50
40374;DHT22;26079;45.958;12.492;2023-02-11T06:17:29;-4.20;99.50
40374;DHT22;26079;45.958;12.492;2023-02-11T06:19:59;-4.10;99.80
40374;DHT22;26079;45.958;12.492;2023-02-11T06:22:27;-4.20;99.30
40374;DHT22;26079;45.958;12.492;2023-02-11T06:24:53;-4.20;99.90
40374;DHT22;26079;45.958;12.492;2023-02-11T06:27:19;-4.30;99.90
40374;DHT22;26079;45.958;12.492;2023-02-11T06:29:45;-4.20;99.90
40374;DHT22;26079;45.958;12.492;2023-02-11T06:32:12;-4.10;99.90
40374;DHT22;26079;45.958;12.492;2023-02-11T06:34:38;-4.10;99.90
40374;DHT22;26079;45.958;12.492;2023-02-11T06:37:04;-4.00;99.90
40374;DHT22;26079;45.958;12.492;2023-02-11T06:39:30;-4.00;99.80
40374;DHT22;26079;45.958;12.492;2023-02-11T06:41:55;-4.00;99.90
40374;DHT22;26079;45.958;12.492;2023-02-11T06:44:21;-3.90;99.90
40374;DHT22;26079;45.958;12.492;2023-02-11T06:46:47;-3.90;99.90
40374;DHT22;26079;45.958;12.492;2023-02-11T06:49:13;-3.80;99.90
40374;DHT22;26079;45.958;12.492;2023-02-11T06:51:39;-3.60;99.90
40374;DHT22;26079;45.958;12.492;2023-02-11T06:54:05;-3.50;99.60
40374;DHT22;26079;45.958;12.492;2023-02-11T06:56:31;-3.50;98.80
40374;DHT22;26079;45.958;12.492;2023-02-11T06:58:58;-3.40;99.00
40374;DHT22;26079;45.958;12.492;2023-02-11T07:01:25;-3.30;98.50
40374;DHT22;26079;45.958;12.492;2023-02-11T07:03:51;-3.30;98.60
40374;DHT22;26079;45.958;12.492;2023-02-11T07:06:20;-3.20;98.60
40374;DHT22;26079;45.958;12.492;2023-02-11T07:08:47;-3.10;98.20
40374;DHT22;26079;45.958;12.492;2023-02-11T07:11:24;-3.10;98.00
40374;DHT22;26079;45.958;12.492;2023-02-11T07:13:51;-3.10;97.30
40374;DHT22;26079;45.958;12.492;2023-02-11T07:16:18;-3.10;97.40
40374;DHT22;26079;45.958;12.492;2023-02-11T07:18:45;-3.10;97.10
40374;DHT22;26079;45.958;12.492;2023-02-11T07:21:13;-3.00;97.30
40374;DHT22;26079;45.958;12.492;2023-02-11T07:23:39;-2.90;96.90
40374;DHT22;26079;45.958;12.492;2023-02-11T07:26:14;-2.80;97.10
40374;DHT22;26079;45.958;12.492;2023-02-11T07:28:41;-2.70;96.30
40374;DHT22;26079;45.958;12.492;2023-02-11T07:31:19;-2.60;95.30
40374;DHT22;26079;45.958;12.492;2023-02-11T07:33:45;-2.60;94.80
40374;DHT22;26079;45.958;12.492;2023-02-11T07:36:13;-2.60;94.50
40374;DHT22;26079;45.958;12.492;2023-02-11T07:38:39;-2.50;94.50
40374;DHT22;26079;45.958;12.492;2023-02-11T07:41:08;-2.40;95.00
40374;DHT22;26079;45.958;12.492;2023-02-11T07:43:35;-2.30;95.50
40374;DHT22;26079;45.958;12.492;2023-02-11T07:46:05;-2.20;95.00
40374;DHT22;26079;45.958;12.492;2023-02-11T07:48:31;-2.10;93.50
40374;DHT22;26079;45.958;12.492;2023-02-11T07:51:26;-2.00;93.30
40374;DHT22;26079;45.958;12.492;2023-02-11T07:53:52;-1.90;93.20
40374;DHT22;26079;45.958;12.492;2023-02-11T07:56:19;-1.80;92.70
40374;DHT22;26079;45.958;12.492;2023-02-11T07:58:46;-1.60;92.40
40374;DHT22;26079;45.958;12.492;2023-02-11T08:01:17;-1.40;92.30
40374;DHT22;26079;45.958;12.492;2023-02-11T08:03:43;-1.20;91.80
40374;DHT22;26079;45.958;12.492;2023-02-11T08:06:12;-1.10;91.30
40374;DHT22;26079;45.958;12.492;2023-02-11T08:08:38;-1.00;91.00
40374;DHT22;26079;45.958;12.492;2023-02-11T08:11:22;-0.90;90.90
40374;DHT22;26079;45.958;12.492;2023-02-11T08:13:48;-0.80;91.10
40374;DHT22;26079;45.958;12.492;2023-02-11T08:16:33;-0.80;90.90
40374;DHT22;26079;45.958;12.492;2023-02-11T08:19:02;-0.70;90.50
40374;DHT22;26079;45.958;12.492;2023-02-11T08:21:32;-0.50;90.40
40374;DHT22;26079;45.958;12.492;2023-02-11T08:23:58;-0.40;90.30
40374;DHT22;26079;45.958;12.492;2023-02-11T08:26:27;-0.30;90.30
40374;DHT22;26079;45.958;12.492;2023-02-11T08:28:55;-0.10;90.50
40374;DHT22;26079;45.958;12.492;2023-02-11T08:33:49;0.10;89.40
40374;DHT22;26079;45.958;12.492;2023-02-11T08:36:23;0.20;89.30
40374;DHT22;26079;45.958;12.492;2023-02-11T08:38:49;0.30;89.30
40374;DHT22;26079;45.958;12.492;2023-02-11T08:41:15;0.40;89.30
40374;DHT22;26079;45.958;12.492;2023-02-11T08:43:42;0.50;88.60
40374;DHT22;26079;45.958;12.492;2023-02-11T08:46:10;0.60;88.20
40374;DHT22;26079;45.958;12.492;2023-02-11T08:48:36;0.80;87.70
40374;DHT22;26079;45.958;12.492;2023-02-11T08:51:11;0.90;86.90
40374;DHT22;26079;45.958;12.492;2023-02-11T08:53:38;0.90;86.60
40374;DHT22;26079;45.958;12.492;2023-02-11T08:56:04;1.00;86.30
40374;DHT22;26079;45.958;12.492;2023-02-11T08:58:31;1.00;86.30
40374;DHT22;26079;45.958;12.492;2023-02-11T09:00:57;1.10;86.40
40374;DHT22;26079;45.958;12.492;2023-02-11T09:03:23;1.10;86.30
40374;DHT22;26079;45.958;12.492;2023-02-11T09:05:49;1.30;86.10
40374;DHT22;26079;45.958;12.492;2023-02-11T09:08:18;1.40;85.70
40374;DHT22;26079;45.958;12.492;2023-02-11T09:10:44;1.50;85.10
40374;DHT22;26079;45.958;12.492;2023-02-11T09:13:10;1.60;84.30
40374;DHT22;26079;45.958;12.492;2023-02-11T09:15:36;1.80;83.90
40374;DHT22;26079;45.958;12.492;2023-02-11T09:18:02;1.90;83.60
40374;DHT22;26079;45.958;12.492;2023-02-11T09:20:28;2.10;82.80
40374;DHT22;26079;45.958;12.492;2023-02-11T09:22:55;2.30;82.20
40374;DHT22;26079;45.958;12.492;2023-02-11T09:25:21;2.50;81.30
40374;DHT22;26079;45.958;12.492;2023-02-11T09:27:46;2.50;81.10
40374;DHT22;26079;45.958;12.492;2023-02-11T09:30:12;2.60;80.70
40374;DHT22;26079;45.958;12.492;2023-02-11T09:32:38;2.70;80.70
40374;DHT22;26079;45.958;12.492;2023-02-11T09:35:04;2.80;80.80
40374;DHT22;26079;45.958;12.492;2023-02-11T09:37:30;2.80;80.50
40374;DHT22;26079;45.958;12.492;2023-02-11T09:39:55;2.90;79.20
40374;DHT22;26079;45.958;12.492;2023-02-11T09:42:38;3.10;78.40
40374;DHT22;26079;45.958;12.492;2023-02-11T09:45:19;3.20;77.00
40374;DHT22;26079;45.958;12.492;2023-02-11T09:48:19;3.40;75.50
40374;DHT22;26079;45.958;12.492;2023-02-11T09:50:54;3.50;75.90
40374;DHT22;26079;45.958;12.492;2023-02-11T09:53:25;3.60;76.00
40374;DHT22;26079;45.958;12.492;2023-02-11T09:55:53;3.80;75.90
40374;DHT22;26079;45.958;12.492;2023-02-11T09:58:29;3.80;75.60
40374;DHT22;26079;45.958;12.492;2023-02-11T10:06:42;4.00;74.50
40374;DHT22;26079;45.958;12.492;2023-02-11T10:11:56;4.10;73.40
40374;DHT22;26079;45.958;12.492;2023-02-11T10:22:57;4.60;72.90
40374;DHT22;26079;45.958;12.492;2023-02-11T10:25:40;4.80;72.50
40374;DHT22;26079;45.958;12.492;2023-02-11T10:28:19;5.00;72.60
40374;DHT22;26079;45.958;12.492;2023-02-11T10:31:06;5.30;72.30
40374;DHT22;26079;45.958;12.492;2023-02-11T10:33:45;5.60;71.80
40374;DHT22;26079;45.958;12.492;2023-02-11T10:36:13;5.90;71.00
40374;DHT22;26079;45.958;12.492;2023-02-11T10:38:39;6.20;68.10
40374;DHT22;26079;45.958;12.492;2023-02-11T10:41:05;6.50;66.50
40374;DHT22;26079;45.958;12.492;2023-02-11T10:43:32;6.60;66.50
40374;DHT22;26079;45.958;12.492;2023-02-11T10:45:59;6.60;65.40
40374;DHT22;26079;45.958;12.492;2023-02-11T10:53:38;6.80;63.20
40374;DHT22;26079;45.958;12.492;2023-02-11T10:56:06;6.80;64.20
40374;DHT22;26079;45.958;12.492;2023-02-11T10:59:01;6.80;64.10
40374;DHT22;26079;45.958;12.492;2023-02-11T11:01:46;6.70;64.90
40374;DHT22;26079;45.958;12.492;2023-02-11T11:04:33;6.50;65.40
40374;DHT22;26079;45.958;12.492;2023-02-11T11:09:53;6.40;65.20
40374;DHT22;26079;45.958;12.492;2023-02-11T11:17:41;6.40;65.30
40374;DHT22;26079;45.958;12.492;2023-02-11T11:22:47;6.80;62.50
40374;DHT22;26079;45.958;12.492;2023-02-11T11:25:27;7.00;62.10
40374;DHT22;26079;45.958;12.492;2023-02-11T11:27:58;7.20;61.90
40374;DHT22;26079;45.958;12.492;2023-02-11T11:30:33;7.40;61.30
40374;DHT22;26079;45.958;12.492;2023-02-11T11:33:03;7.50;60.90
40374;DHT22;26079;45.958;12.492;2023-02-11T11:35:30;7.60;61.50
40374;DHT22;26079;45.958;12.492;2023-02-11T11:38:03;7.70;59.30
40374;DHT22;26079;45.958;12.492;2023-02-11T11:40:34;7.80;59.50
40374;DHT22;26079;45.958;12.492;2023-02-11T11:43:21;8.00;59.30
40374;DHT22;26079;45.958;12.492;2023-02-11T11:46:12;8.10;58.80
40374;DHT22;26079;45.958;12.492;2023-02-11T11:48:48;8.30;58.10
40374;DHT22;26079;45.958;12.492;2023-02-11T11:51:16;8.40;57.70
40374;DHT22;26079;45.958;12.492;2023-02-11T11:53:55;8.60;58.00
40374;DHT22;26079;45.958;12.492;2023-02-11T11:56:31;8.70;56.90
40374;DHT22;26079;45.958;12.492;2023-02-11T11:59:08;8.90;56.20
40374;DHT22;26079;45.958;12.492;2023-02-11T12:04:29;9.00;58.00
40374;DHT22;26079;45.958;12.492;2023-02-11T12:10:21;8.90;55.50
40374;DHT22;26079;45.958;12.492;2023-02-11T12:26:43;8.30;57.60
40374;DHT22;26079;45.958;12.492;2023-02-11T12:35:16;8.10;57.50
40374;DHT22;26079;45.958;12.492;2023-02-11T12:40:57;8.30;57.30
40374;DHT22;26079;45.958;12.492;2023-02-11T12:43:42;8.40;57.60
40374;DHT22;26079;45.958;12.492;2023-02-11T12:46:33;8.40;57.70
40374;DHT22;26079;45.958;12.492;2023-02-11T12:54:42;8.70;57.40
40374;DHT22;26079;45.958;12.492;2023-02-11T12:57:26;8.60;57.40
40374;DHT22;26079;45.958;12.492;2023-02-11T13:02:33;8.50;57.10
40374;DHT22;26079;45.958;12.492;2023-02-11T13:05:21;8.60;55.70
40374;DHT22;26079;45.958;12.492;2023-02-11T13:07:49;8.60;55.00
40374;DHT22;26079;45.958;12.492;2023-02-11T13:12:55;8.50;55.50
40374;DHT22;26079;45.958;12.492;2023-02-11T13:15:46;8.40;56.70
40374;DHT22;26079;45.958;12.492;2023-02-11T13:31:31;8.30;56.90
40374;DHT22;26079;45.958;12.492;2023-02-11T13:33:57;8.40;56.50
40374;DHT22;26079;45.958;12.492;2023-02-11T13:36:25;8.50;56.40
40374;DHT22;26079;45.958;12.492;2023-02-11T13:38:54;8.50;56.20
40374;DHT22;26079;45.958;12.492;2023-02-11T13:43:58;8.60;55.50
40374;DHT22;26079;45.958;12.492;2023-02-11T13:46:25;8.60;55.20
40374;DHT22;26079;45.958;12.492;2023-02-11T13:48:53;8.50;56.00
40374;DHT22;26079;45.958;12.492;2023-02-11T13:51:36;8.60;55.70
40374;DHT22;26079;45.958;12.492;2023-02-11T13:54:04;8.50;56.50
40374;DHT22;26079;45.958;12.492;2023-02-11T13:56:39;8.50;55.60
40374;DHT22;26079;45.958;12.492;2023-02-11T14:13:32;8.60;56.70
40374;DHT22;26079;45.958;12.492;2023-02-11T14:16:19;8.60;56.60
40374;DHT22;26079;45.958;12.492;2023-02-11T14:23:53;8.60;56.50
40374;DHT22;26079;45.958;12.492;2023-02-11T14:37:47;8.40;57.00
40374;DHT22;26079;45.958;12.492;2023-02-11T14:40:22;8.30;58.10
40374;DHT22;26079;45.958;12.492;2023-02-11T14:42:52;8.30;57.60
40374;DHT22;26079;45.958;12.492;2023-02-11T14:45:24;8.30;56.50
40374;DHT22;26079;45.958;12.492;2023-02-11T14:48:14;8.40;56.40
40374;DHT22;26079;45.958;12.492;2023-02-11T14:53:24;8.40;57.00
40374;DHT22;26079;45.958;12.492;2023-02-11T14:55:52;8.40;57.20
40374;DHT22;26079;45.958;12.492;2023-02-11T14:58:21;8.40;55.60
40374;DHT22;26079;45.958;12.492;2023-02-11T15:00:59;8.30;57.70
40374;DHT22;26079;45.958;12.492;2023-02-11T15:06:01;8.20;58.10
40374;DHT22;26079;45.958;12.492;2023-02-11T15:08:29;8.20;58.20
40374;DHT22;26079;45.958;12.492;2023-02-11T15:10:56;8.10;58.20
40374;DHT22;26079;45.958;12.492;2023-02-11T15:13:24;8.10;58.40
40374;DHT22;26079;45.958;12.492;2023-02-11T15:16:07;8.10;58.10
40374;DHT22;26079;45.958;12.492;2023-02-11T15:18:40;8.00;58.40
40374;DHT22;26079;45.958;12.492;2023-02-11T15:21:08;7.80;58.70
40374;DHT22;26079;45.958;12.492;2023-02-11T15:23:35;7.70;58.80
40374;DHT22;26079;45.958;12.492;2023-02-11T15:26:01;7.70;58.70
40374;DHT22;26079;45.958;12.492;2023-02-11T15:28:34;7.60;58.60
40374;DHT22;26079;45.958;12.492;2023-02-11T15:31:10;7.60;59.50
40374;DHT22;26079;45.958;12.492;2023-02-11T15:33:38;7.50;59.10
40374;DHT22;26079;45.958;12.492;2023-02-11T15:36:04;7.60;58.40
40374;DHT22;26079;45.958;12.492;2023-02-11T15:38:30;7.80;59.20
40374;DHT22;26079;45.958;12.492;2023-02-11T15:40:58;7.70;59.40
40374;DHT22;26079;45.958;12.492;2023-02-11T15:43:46;7.60;58.00
40374;DHT22;26079;45.958;12.492;2023-02-11T15:46:36;7.60;58.90
40374;DHT22;26079;45.958;12.492;2023-02-11T15:49:03;7.50;58.50
40374;DHT22;26079;45.958;12.492;2023-02-11T15:51:35;7.50;59.40
40374;DHT22;26079;45.958;12.492;2023-02-11T15:54:14;7.40;59.10
40374;DHT22;26079;45.958;12.492;2023-02-11T15:56:43;7.50;58.60
40374;DHT22;26079;45.958;12.492;2023-02-11T15:59:24;7.40;58.80
40374;DHT22;26079;45.958;12.492;2023-02-11T16:01:51;7.30;61.80
40374;DHT22;26079;45.958;12.492;2023-02-11T16:04:22;7.20;60.00
40374;DHT22;26079;45.958;12.492;2023-02-11T16:06:49;7.20;59.70
40374;DHT22;26079;45.958;12.492;2023-02-11T16:17:11;6.90;66.80
40374;DHT22;26079;45.958;12.492;2023-02-11T16:19:46;6.70;65.50
40374;DHT22;26079;45.958;12.492;2023-02-11T16:22:19;6.50;63.40
40374;DHT22;26079;45.958;12.492;2023-02-11T16:24:48;6.40;66.40
40374;DHT22;26079;45.958;12.492;2023-02-11T16:27:23;6.20;64.20
40374;DHT22;26079;45.958;12.492;2023-02-11T16:29:50;6.10;64.40
40374;DHT22;26079;45.958;12.492;2023-02-11T16:32:19;6.00;65.30
40374;DHT22;26079;45.958;12.492;2023-02-11T16:34:45;5.70;67.00
40374;DHT22;26079;45.958;12.492;2023-02-11T16:37:11;5.50;68.30
40374;DHT22;26079;45.958;12.492;2023-02-11T16:39:40;5.30;71.90
40374;DHT22;26079;45.958;12.492;2023-02-11T16:42:06;5.20;69.30
40374;DHT22;26079;45.958;12.492;2023-02-11T16:44:33;5.00;69.90
40374;DHT22;26079;45.958;12.492;2023-02-11T16:47:00;4.80;71.60
40374;DHT22;26079;45.958;12.492;2023-02-11T16:49:36;4.60;71.90
40374;DHT22;26079;45.958;12.492;2023-02-11T16:52:06;4.60;71.60
40374;DHT22;26079;45.958;12.492;2023-02-11T16:54:33;4.50;72.00
40374;DHT22;26079;45.958;12.492;2023-02-11T16:56:59;4.50;72.50
40374;DHT22;26079;45.958;12.492;2023-02-11T16:59:24;4.40;73.80
40374;DHT22;26079;45.958;12.492;2023-02-11T17:01:53;4.40;73.60
40374;DHT22;26079;45.958;12.492;2023-02-11T17:04:28;4.30;73.30
40374;DHT22;26079;45.958;12.492;2023-02-11T17:06:57;4.20;74.20
40374;DHT22;26079;45.958;12.492;2023-02-11T17:09:26;4.10;75.10
40374;DHT22;26079;45.958;12.492;2023-02-11T17:11:52;4.10;76.60
40374;DHT22;26079;45.958;12.492;2023-02-11T17:14:21;4.10;77.60
40374;DHT22;26079;45.958;12.492;2023-02-11T17:16:47;4.00;77.20
40374;DHT22;26079;45.958;12.492;2023-02-11T17:19:18;4.00;77.50
40374;DHT22;26079;45.958;12.492;2023-02-11T17:21:47;4.00;79.10
40374;DHT22;26079;45.958;12.492;2023-02-11T17:24:13;3.90;78.80
40374;DHT22;26079;45.958;12.492;2023-02-11T17:26:41;3.90;79.30
40374;DHT22;26079;45.958;12.492;2023-02-11T17:29:16;3.80;80.30
40374;DHT22;26079;45.958;12.492;2023-02-11T17:31:42;3.80;79.90
40374;DHT22;26079;45.958;12.492;2023-02-11T17:34:08;3.90;79.40
40374;DHT22;26079;45.958;12.492;2023-02-11T17:36:37;3.90;79.90
40374;DHT22;26079;45.958;12.492;2023-02-11T17:39:03;3.90;79.40
40374;DHT22;26079;45.958;12.492;2023-02-11T17:41:31;3.90;77.70
40374;DHT22;26079;45.958;12.492;2023-02-11T17:43:58;3.90;77.00
40374;DHT22;26079;45.958;12.492;2023-02-11T17:46:24;3.80;77.10
40374;DHT22;26079;45.958;12.492;2023-02-11T17:48:53;3.80;77.40
40374;DHT22;26079;45.958;12.492;2023-02-11T17:53:52;3.60;78.80
40374;DHT22;26079;45.958;12.492;2023-02-11T17:56:19;3.50;79.00
40374;DHT22;26079;45.958;12.492;2023-02-11T17:58:45;3.30;78.30
40374;DHT22;26079;45.958;12.492;2023-02-11T18:01:11;3.10;78.60
40374;DHT22;26079;45.958;12.492;2023-02-11T18:03:37;3.00;79.20
40374;DHT22;26079;45.958;12.492;2023-02-11T18:06:04;2.90;80.90
40374;DHT22;26079;45.958;12.492;2023-02-11T18:08:32;2.80;81.40
40374;DHT22;26079;45.958;12.492;2023-02-11T18:10:58;2.70;83.70
40374;DHT22;26079;45.958;12.492;2023-02-11T18:13:24;2.70;85.00
40374;DHT22;26079;45.958;12.492;2023-02-11T18:15:50;2.80;83.10
40374;DHT22;26079;45.958;12.492;2023-02-11T18:18:16;2.80;82.10
40374;DHT22;26079;45.958;12.492;2023-02-11T18:20:42;2.70;82.50
40374;DHT22;26079;45.958;12.492;2023-02-11T18:23:10;2.60;82.20
40374;DHT22;26079;45.958;12.492;2023-02-11T18:25:36;2.60;82.90
40374;DHT22;26079;45.958;12.492;2023-02-11T18:28:02;2.50;82.30